Time;durP1;ratioP1;P1;durP2;ratioP2;P2;SDS_P1;SDS_P2;PMS_P1;PMS_P2;Temp;Humidity;BMP_temperature;BMP_pressure;BME280_temperature;BME280_humidity;BME280_pressure;Samples;Min_cycle;Max_cycle;Signal;HPM_P1;HPM_P2
2022/03/13 06:54:03;;;;;;;39.95;20.45;;;;;;;;;;6215691;22;20026;-88
2022/03/13 06:56:29;;;;;;;38.88;20.85;;;;;;;;;;6217174;23;20044;-88
2022/03/13 06:58:55;;;;;;;37.17;20.17;;;;;;;;;;6190445;23;20019;-89
2022/03/13 07:01:20;;;;;;;40.17;21.40;;;;;;;;;;6190353;23;20015;-88
2022/03/13 07:03:46;;;;;;;40.15;20.55;;;;;;;;;;6190274;23;20091;-90
2022/03/13 07:06:11;;;;;;;35.47;19.50;;;;;;;;;;6190384;23;20008;-88
2022/03/13 07:08:37;;;;;;;34.67;19.63;;;;;;;;;;6190251;23;20420;-90
2022/03/13 07:11:02;;;;;;;39.40;20.75;;;;;;;;;;6190335;23;20379;-90
2022/03/13 07:13:32;;;;;;;35.38;19.23;;;;;;;;;;6190339;23;20035;-92
2022/03/13 07:16:03;;;;;;;36.65;20.23;;;;;;;;;;6190483;23;20009;-91
2022/03/13 07:18:29;;;;;;;33.63;18.73;;;;;;;;;;6190008;23;20257;-89
2022/03/13 12:14:52;;;;;;;16.20;12.02;;;;;;;;;;6217444;23;20016;-95
2022/03/13 12:17:18;;;;;;;18.65;12.80;;;;;;;;;;6221869;23;20020;-93
2022/03/13 12:19:45;;;;;;;18.10;12.93;;;;;;;;;;6248985;23;20000;-93
2022/03/13 12:22:13;;;;;;;18.92;14.25;;;;;;;;;;6241143;23;20004;-92
2022/03/13 12:24:39;;;;;;;17.52;11.65;;;;;;;;;;6247094;23;20032;-93
2022/03/13 12:27:07;;;;;;;15.90;11.75;;;;;;;;;;6247897;23;20012;-92
2022/03/13 12:29:32;;;;;;;16.45;12.70;;;;;;;;;;6247471;23;20010;-92
2022/03/13 12:31:59;;;;;;;16.05;12.55;;;;;;;;;;6247264;23;20032;-94
2022/03/13 12:34:28;;;;;;;18.10;14.30;;;;;;;;;;6247707;23;20011;-91
2022/03/13 12:37:00;;;;;;;16.98;12.70;;;;;;;;;;6247336;23;20099;-92
2022/03/13 12:39:25;;;;;;;18.35;13.52;;;;;;;;;;6247280;23;20427;-92
2022/03/13 12:42:04;;;;;;;16.98;13.02;;;;;;;;;;6247221;23;20011;-92
2022/03/13 12:44:30;;;;;;;15.50;11.63;;;;;;;;;;6247454;23;20327;-93
2022/03/13 12:46:56;;;;;;;15.18;11.27;;;;;;;;;;6247085;23;20004;-92
2022/03/13 12:49:30;;;;;;;13.88;11.88;;;;;;;;;;6247123;23;20035;-92
2022/03/13 12:51:57;;;;;;;16.95;12.20;;;;;;;;;;6246823;23;20449;-91
2022/03/13 12:54:22;;;;;;;14.10;11.63;;;;;;;;;;6247322;23;20004;-91
2022/03/13 12:56:58;;;;;;;14.75;11.05;;;;;;;;;;6247142;23;20474;-90
2022/03/13 12:59:53;;;;;;;16.00;11.30;;;;;;;;;;6247919;23;20015;-94
2022/03/13 13:02:25;;;;;;;13.55;11.38;;;;;;;;;;6249942;23;20122;-95
2022/03/13 13:05:06;;;;;;;14.93;10.98;;;;;;;;;;6251309;23;20411;-93
2022/03/13 13:07:41;;;;;;;13.90;10.10;;;;;;;;;;6250783;22;20000;-93
2022/03/13 13:10:09;;;;;;;13.07;10.73;;;;;;;;;;6248341;23;20004;-95
2022/03/13 13:12:36;;;;;;;14.90;11.35;;;;;;;;;;6248181;23;20468;-91
2022/03/13 13:15:05;;;;;;;14.60;11.07;;;;;;;;;;6246924;23;20016;-91
2022/03/13 13:17:31;;;;;;;13.40;10.90;;;;;;;;;;6247414;23;20015;-91
2022/03/13 13:20:01;;;;;;;14.60;11.60;;;;;;;;;;6246974;23;20445;-91
2022/03/13 13:22:32;;;;;;;13.43;10.70;;;;;;;;;;6248018;23;20008;-91
2022/03/13 13:25:09;;;;;;;13.15;9.93;;;;;;;;;;6250366;23;20004;-96
2022/03/13 13:27:38;;;;;;;12.38;9.38;;;;;;;;;;6250642;23;20054;-95
2022/03/13 13:30:28;;;;;;;15.68;10.55;;;;;;;;;;6248542;23;20008;-96
2022/03/13 13:33:05;;;;;;;14.70;10.13;;;;;;;;;;6247998;23;20003;-93
2022/03/13 13:35:34;;;;;;;13.77;10.20;;;;;;;;;;6247316;23;20003;-94
2022/03/13 13:38:11;;;;;;;14.48;10.82;;;;;;;;;;6247588;23;20470;-92
2022/03/13 13:40:52;;;;;;;18.45;11.63;;;;;;;;;;6247956;23;20308;-95
2022/03/13 13:43:29;;;;;;;14.98;10.60;;;;;;;;;;6248462;23;20008;-91
2022/03/13 13:46:02;;;;;;;15.15;12.60;;;;;;;;;;6249738;22;20007;-94
2022/03/13 13:48:29;;;;;;;15.57;11.20;;;;;;;;;;6247086;23;20012;-96
2022/03/13 13:51:20;;;;;;;17.63;12.13;;;;;;;;;;6246774;23;20332;-94
2022/03/13 13:54:08;;;;;;;15.07;9.98;;;;;;;;;;6246739;23;20031;-92
2022/03/13 13:56:39;;;;;;;15.10;9.30;;;;;;;;;;6247420;23;20383;-90
2022/03/13 13:59:28;;;;;;;13.27;9.70;;;;;;;;;;6246265;23;20015;-90
2022/03/13 14:02:03;;;;;;;13.85;9.77;;;;;;;;;;6247684;22;20066;-87
2022/03/13 14:04:35;;;;;;;14.73;9.50;;;;;;;;;;6248053;22;20031;-91
2022/03/13 14:07:03;;;;;;;13.90;8.90;;;;;;;;;;6248194;23;20019;-88
2022/03/13 14:09:29;;;;;;;13.70;8.93;;;;;;;;;;6246227;23;20070;-90
2022/03/13 14:11:55;;;;;;;30.05;17.60;;;;;;;;;;6246494;23;20423;-90
2022/03/13 14:14:21;;;;;;;17.02;11.25;;;;;;;;;;6246634;23;20066;-89
2022/03/13 14:16:47;;;;;;;14.48;9.27;;;;;;;;;;6246491;23;20062;-93
2022/03/13 14:19:12;;;;;;;13.88;9.68;;;;;;;;;;6246303;23;20393;-89
2022/03/13 14:21:39;;;;;;;14.65;9.80;;;;;;;;;;6245869;23;20154;-88
2022/03/13 14:24:06;;;;;;;16.63;10.27;;;;;;;;;;6245836;23;20149;-90
2022/03/13 14:26:31;;;;;;;15.63;9.88;;;;;;;;;;6246556;23;20331;-89
2022/03/13 14:28:58;;;;;;;20.20;11.30;;;;;;;;;;6247109;23;20099;-87
2022/03/13 14:31:24;;;;;;;15.23;10.18;;;;;;;;;;6246398;23;20027;-90
2022/03/13 14:33:49;;;;;;;14.52;9.80;;;;;;;;;;6247275;23;20008;-88
2022/03/13 14:36:16;;;;;;;15.57;9.73;;;;;;;;;;6248766;23;20324;-89
2022/03/13 14:38:48;;;;;;;14.52;10.25;;;;;;;;;;6257616;23;20060;-90
2022/03/13 14:41:22;;;;;;;15.73;9.52;;;;;;;;;;6258842;23;20008;-88
2022/03/13 14:43:49;;;;;;;12.50;9.05;;;;;;;;;;6260871;22;20004;-89
2022/03/13 14:46:15;;;;;;;11.77;8.82;;;;;;;;;;6260283;22;20011;-89
2022/03/13 14:48:44;;;;;;;12.40;9.30;;;;;;;;;;6259195;23;20012;-88
2022/03/13 14:51:12;;;;;;;13.65;9.15;;;;;;;;;;6259697;22;20015;-90
2022/03/13 14:53:38;;;;;;;12.80;9.10;;;;;;;;;;6260351;22;20419;-88
2022/03/13 14:56:06;;;;;;;13.20;10.25;;;;;;;;;;6260334;22;20011;-88
2022/03/13 14:58:32;;;;;;;22.50;13.70;;;;;;;;;;6254721;22;20008;-90
2022/03/13 15:00:58;;;;;;;24.33;14.10;;;;;;;;;;6246091;23;20008;-88
2022/03/13 15:03:24;;;;;;;17.55;11.73;;;;;;;;;;6247892;22;20359;-89
2022/03/13 15:05:51;;;;;;;15.85;9.57;;;;;;;;;;6248135;22;20324;-89
2022/03/13 15:08:17;;;;;;;11.95;8.45;;;;;;;;;;6246503;23;20000;-87
2022/03/13 15:10:43;;;;;;;11.80;8.93;;;;;;;;;;6245837;23;20054;-88
2022/03/13 15:13:08;;;;;;;15.45;9.60;;;;;;;;;;6246795;23;20012;-89
2022/03/13 15:15:34;;;;;;;15.50;10.23;;;;;;;;;;6246229;23;20329;-91
2022/03/13 15:17:59;;;;;;;12.75;10.00;;;;;;;;;;6245984;23;20062;-89
2022/03/13 15:20:28;;;;;;;12.25;8.70;;;;;;;;;;6246145;23;20007;-89
2022/03/13 15:22:54;;;;;;;13.88;8.95;;;;;;;;;;6246437;23;20008;-93
2022/03/13 15:25:20;;;;;;;12.63;9.48;;;;;;;;;;6246558;23;20062;-90
2022/03/13 15:27:46;;;;;;;12.30;8.52;;;;;;;;;;6246016;23;20119;-89
2022/03/13 15:30:12;;;;;;;13.80;8.73;;;;;;;;;;6246993;23;20012;-89
2022/03/13 15:32:37;;;;;;;11.90;8.50;;;;;;;;;;6248082;22;20000;-89
2022/03/13 15:35:03;;;;;;;12.23;8.45;;;;;;;;;;6248850;23;20325;-90
2022/03/13 15:37:29;;;;;;;11.73;8.35;;;;;;;;;;6246804;23;20342;-90
2022/03/13 15:39:54;;;;;;;12.95;8.43;;;;;;;;;;6246956;23;20038;-90
2022/03/13 15:42:20;;;;;;;13.60;9.18;;;;;;;;;;6245746;23;20412;-90
2022/03/13 15:44:46;;;;;;;11.88;8.20;;;;;;;;;;6245607;23;20004;-90
2022/03/13 15:47:12;;;;;;;12.90;9.32;;;;;;;;;;6245428;23;20008;-93
2022/03/13 15:49:37;;;;;;;11.27;8.55;;;;;;;;;;6245359;23;20074;-90
2022/03/13 15:52:04;;;;;;;13.23;8.00;;;;;;;;;;6248623;22;20000;-88
2022/03/13 15:54:30;;;;;;;13.43;9.18;;;;;;;;;;6249813;23;20079;-90
2022/03/13 15:56:56;;;;;;;12.00;8.50;;;;;;;;;;6249361;23;20011;-90
2022/03/13 15:59:22;;;;;;;12.15;8.40;;;;;;;;;;6248984;23;20012;-89
2022/03/13 16:01:47;;;;;;;15.38;9.40;;;;;;;;;;6248531;23;20012;-88
2022/03/13 16:04:13;;;;;;;12.05;8.80;;;;;;;;;;6249577;23;20339;-89
2022/03/13 16:06:38;;;;;;;10.55;8.55;;;;;;;;;;6248467;23;20000;-89
2022/03/13 16:09:04;;;;;;;11.25;8.30;;;;;;;;;;6247785;23;20435;-91
2022/03/13 16:11:30;;;;;;;11.18;7.50;;;;;;;;;;6247807;23;20004;-88
2022/03/13 16:13:56;;;;;;;11.90;7.93;;;;;;;;;;6247165;22;20408;-87
2022/03/13 16:16:22;;;;;;;11.82;7.60;;;;;;;;;;6252088;22;20003;-89
2022/03/13 16:18:47;;;;;;;11.10;7.80;;;;;;;;;;6252647;22;20007;-90
2022/03/13 16:21:12;;;;;;;11.50;8.05;;;;;;;;;;6252523;22;20008;-91
2022/03/13 16:23:38;;;;;;;11.98;8.52;;;;;;;;;;6279253;22;20000;-91
2022/03/13 16:26:04;;;;;;;11.93;8.45;;;;;;;;;;6252924;22;20276;-96
2022/03/13 16:28:30;;;;;;;13.43;8.32;;;;;;;;;;6253051;22;20435;-93
2022/03/13 16:30:55;;;;;;;11.45;8.02;;;;;;;;;;6254044;22;20008;-91
2022/03/13 16:33:21;;;;;;;13.10;8.80;;;;;;;;;;6254503;22;20011;-90
2022/03/13 16:35:47;;;;;;;13.20;9.15;;;;;;;;;;6252799;22;20018;-92
2022/03/13 16:38:12;;;;;;;13.05;8.82;;;;;;;;;;6252249;22;20003;-90
2022/03/13 16:40:40;;;;;;;13.90;10.15;;;;;;;;;;6251977;22;20000;-91
2022/03/13 16:43:09;;;;;;;14.85;8.98;;;;;;;;;;6251908;22;20010;-90
2022/03/13 16:45:37;;;;;;;15.20;8.80;;;;;;;;;;6251892;22;20016;-90
2022/03/13 16:48:03;;;;;;;11.27;7.93;;;;;;;;;;6252341;22;20008;-89
2022/03/13 16:50:29;;;;;;;14.00;8.65;;;;;;;;;;6251584;22;20027;-89
2022/03/13 16:52:55;;;;;;;12.70;8.00;;;;;;;;;;6251562;22;20095;-90
2022/03/13 16:55:21;;;;;;;13.68;8.27;;;;;;;;;;6251802;22;20007;-90
2022/03/13 16:57:47;;;;;;;13.68;8.07;;;;;;;;;;6252140;22;20331;-89
2022/03/13 17:00:15;;;;;;;11.32;8.50;;;;;;;;;;6251581;22;19999;-90
2022/03/13 17:02:41;;;;;;;12.88;7.95;;;;;;;;;;6251368;22;20007;-89
2022/03/13 17:05:08;;;;;;;11.77;8.35;;;;;;;;;;6251537;22;19999;-91
2022/03/13 17:07:37;;;;;;;12.13;8.52;;;;;;;;;;6251327;22;20000;-89
2022/03/13 17:10:11;;;;;;;16.13;10.30;;;;;;;;;;6251241;22;20004;-89
2022/03/13 17:12:41;;;;;;;13.23;9.05;;;;;;;;;;6251294;22;20003;-87
2022/03/13 17:15:08;;;;;;;11.73;8.35;;;;;;;;;;6251073;22;20475;-89
2022/03/13 17:17:34;;;;;;;11.38;8.82;;;;;;;;;;6251287;22;20008;-90
2022/03/13 17:20:00;;;;;;;11.50;8.18;;;;;;;;;;6251232;22;20455;-91
2022/03/13 17:22:26;;;;;;;14.73;9.13;;;;;;;;;;6251247;22;20082;-90
2022/03/13 17:24:51;;;;;;;13.13;8.52;;;;;;;;;;6251066;22;20085;-90
2022/03/13 17:27:17;;;;;;;13.07;8.80;;;;;;;;;;6251990;22;20000;-88
2022/03/13 17:29:42;;;;;;;13.77;8.98;;;;;;;;;;6250916;22;20378;-88
2022/03/13 17:32:08;;;;;;;14.50;8.55;;;;;;;;;;6251172;22;20007;-90
2022/03/13 17:34:34;;;;;;;13.63;8.75;;;;;;;;;;6251093;22;20099;-89
2022/03/13 17:36:59;;;;;;;17.92;10.10;;;;;;;;;;6251000;22;20008;-89
2022/03/13 17:39:25;;;;;;;12.60;8.77;;;;;;;;;;6251122;22;20042;-89
2022/03/13 17:41:52;;;;;;;12.30;8.35;;;;;;;;;;6250736;22;20004;-89
2022/03/13 17:44:18;;;;;;;15.25;8.27;;;;;;;;;;6251052;22;20010;-90
2022/03/13 17:46:44;;;;;;;13.48;8.45;;;;;;;;;;6251233;22;20327;-89
2022/03/13 17:49:09;;;;;;;11.88;7.95;;;;;;;;;;6278310;22;20010;-90
2022/03/13 17:51:36;;;;;;;11.23;7.35;;;;;;;;;;6252102;22;20434;-88
2022/03/13 17:54:07;;;;;;;13.40;7.82;;;;;;;;;;6254497;22;20034;-90
2022/03/13 17:56:34;;;;;;;10.73;8.02;;;;;;;;;;6252400;22;20027;-89
2022/03/13 17:58:59;;;;;;;13.57;9.20;;;;;;;;;;6252791;22;20334;-89
2022/03/13 18:01:24;;;;;;;12.45;7.68;;;;;;;;;;6251681;22;20098;-89
2022/03/13 18:03:50;;;;;;;12.13;8.60;;;;;;;;;;6252991;22;20015;-88
2022/03/13 18:06:16;;;;;;;11.50;7.97;;;;;;;;;;6253853;22;20308;-88
2022/03/13 18:08:41;;;;;;;11.55;7.90;;;;;;;;;;6254866;22;20003;-88
2022/03/13 18:11:08;;;;;;;12.05;8.18;;;;;;;;;;6280333;22;20067;-88
2022/03/13 18:13:33;;;;;;;12.18;8.40;;;;;;;;;;6256913;22;20011;-88
2022/03/13 18:15:59;;;;;;;11.70;8.15;;;;;;;;;;6251624;22;20070;-89
2022/03/13 18:18:25;;;;;;;10.57;7.70;;;;;;;;;;6251820;22;20011;-89
2022/03/13 18:20:50;;;;;;;14.70;7.97;;;;;;;;;;6251589;22;20419;-89
2022/03/13 18:23:16;;;;;;;10.80;8.10;;;;;;;;;;6253871;22;20004;-89
2022/03/13 18:25:41;;;;;;;10.80;7.43;;;;;;;;;;6255531;22;20437;-89
2022/03/13 18:28:10;;;;;;;12.45;7.90;;;;;;;;;;6228099;22;20094;-88
2022/03/13 18:30:39;;;;;;;10.73;8.07;;;;;;;;;;6252037;22;20003;-89
2022/03/13 18:33:06;;;;;;;13.40;9.18;;;;;;;;;;6252419;22;20083;-90
2022/03/13 18:35:31;;;;;;;11.70;8.15;;;;;;;;;;6253007;22;20431;-89
2022/03/13 18:37:57;;;;;;;12.52;8.52;;;;;;;;;;6252120;22;20004;-91
2022/03/13 18:40:22;;;;;;;10.07;8.05;;;;;;;;;;6253322;22;20425;-92
2022/03/13 18:42:48;;;;;;;10.80;8.02;;;;;;;;;;6253205;22;20010;-89
2022/03/13 18:45:16;;;;;;;10.05;7.10;;;;;;;;;;6254499;22;20028;-93
2022/03/13 18:47:41;;;;;;;12.27;8.20;;;;;;;;;;6253543;22;20008;-92
2022/03/13 18:50:08;;;;;;;12.70;8.10;;;;;;;;;;6253429;22;20085;-93
2022/03/13 18:52:34;;;;;;;12.90;7.78;;;;;;;;;;6254742;22;20453;-94
2022/03/13 18:54:59;;;;;;;11.65;8.00;;;;;;;;;;6256989;22;20004;-90
2022/03/13 18:57:26;;;;;;;13.48;8.80;;;;;;;;;;6255231;22;20011;-89
2022/03/13 18:59:52;;;;;;;11.55;8.02;;;;;;;;;;6287119;22;20057;-90
2022/03/13 19:02:17;;;;;;;11.82;8.23;;;;;;;;;;6255375;22;20005;-89
2022/03/13 19:04:47;;;;;;;12.15;7.82;;;;;;;;;;6168989;23;20009;-90
2022/03/13 19:07:16;;;;;;;15.25;8.60;;;;;;;;;;6146174;23;20372;-96
2022/03/13 19:09:42;;;;;;;14.23;8.80;;;;;;;;;;6183724;23;20373;-94
2022/03/13 19:12:10;;;;;;;12.00;8.68;;;;;;;;;;6194952;23;20016;-90
2022/03/13 19:14:48;;;;;;;12.75;7.90;;;;;;;;;;6186247;23;20039;-89
2022/03/13 19:17:19;;;;;;;10.52;7.38;;;;;;;;;;6186217;23;20063;-88
2022/03/13 19:19:47;;;;;;;10.57;7.63;;;;;;;;;;6185575;23;20491;-88
2022/03/13 19:22:15;;;;;;;12.35;7.78;;;;;;;;;;6187108;23;20424;-88
2022/03/13 19:24:43;;;;;;;11.75;7.65;;;;;;;;;;6188248;23;20416;-89
2022/03/13 19:27:10;;;;;;;10.82;7.80;;;;;;;;;;6193013;23;20077;-90
2022/03/13 19:29:38;;;;;;;12.68;7.43;;;;;;;;;;6193781;23;20039;-88
2022/03/13 19:32:04;;;;;;;13.18;7.95;;;;;;;;;;6191290;23;20061;-89
2022/03/13 19:34:30;;;;;;;10.13;7.20;;;;;;;;;;6188052;23;20084;-89
2022/03/13 19:36:56;;;;;;;12.15;7.20;;;;;;;;;;6187201;23;20005;-92
2022/03/13 19:39:21;;;;;;;12.18;8.48;;;;;;;;;;6188947;23;20425;-90
2022/03/13 19:41:47;;;;;;;13.27;9.48;;;;;;;;;;6191590;23;20324;-94
2022/03/13 19:44:18;;;;;;;11.55;9.02;;;;;;;;;;6195324;23;20001;-87
2022/03/13 19:46:44;;;;;;;12.98;9.40;;;;;;;;;;6195577;23;20001;-88
2022/03/13 19:49:10;;;;;;;30.10;14.05;;;;;;;;;;6189247;23;20016;-89
2022/03/13 19:51:37;;;;;;;22.63;12.15;;;;;;;;;;6195112;23;20040;-88
2022/03/13 19:54:03;;;;;;;32.28;15.27;;;;;;;;;;6192611;23;20055;-89
2022/03/13 19:56:30;;;;;;;39.58;18.38;;;;;;;;;;6192750;23;20001;-88
2022/03/13 19:58:58;;;;;;;18.58;11.45;;;;;;;;;;6191314;23;20008;-90
2022/03/13 20:01:24;;;;;;;10.15;7.57;;;;;;;;;;6191858;23;20476;-88
2022/03/13 20:03:49;;;;;;;14.07;8.10;;;;;;;;;;6208367;23;20013;-88
2022/03/13 20:06:16;;;;;;;14.40;8.75;;;;;;;;;;6204748;22;20060;-87
2022/03/13 20:08:46;;;;;;;12.80;9.43;;;;;;;;;;6256658;23;20027;-89
2022/03/13 20:11:16;;;;;;;12.50;8.52;;;;;;;;;;6255828;23;20008;-89
2022/03/13 20:13:45;;;;;;;16.20;11.30;;;;;;;;;;6255366;23;20014;-89
2022/03/13 20:16:12;;;;;;;11.98;8.73;;;;;;;;;;6259188;23;20008;-90
2022/03/13 20:18:41;;;;;;;11.88;8.02;;;;;;;;;;6263435;23;20004;-89
2022/03/13 20:21:09;;;;;;;13.50;8.98;;;;;;;;;;6259297;23;20000;-89
2022/03/13 20:23:34;;;;;;;13.13;8.98;;;;;;;;;;6259157;23;20395;-89
2022/03/13 20:26:02;;;;;;;15.38;8.95;;;;;;;;;;6257423;23;20015;-90
2022/03/13 20:28:28;;;;;;;11.10;8.10;;;;;;;;;;6255335;23;20081;-89
2022/03/13 20:30:53;;;;;;;12.52;8.48;;;;;;;;;;6258410;23;20001;-89
2022/03/13 20:33:18;;;;;;;11.88;8.63;;;;;;;;;;6256593;23;20004;-89
2022/03/13 20:35:44;;;;;;;13.40;9.48;;;;;;;;;;6257010;23;20059;-89
2022/03/13 20:38:10;;;;;;;16.15;8.63;;;;;;;;;;6257731;23;20008;-89
2022/03/13 20:40:37;;;;;;;13.52;10.10;;;;;;;;;;6257896;23;20427;-90
2022/03/13 20:43:05;;;;;;;13.27;9.30;;;;;;;;;;6247812;22;20043;-88
2022/03/13 20:45:31;;;;;;;14.05;9.85;;;;;;;;;;6232188;23;20411;-89
2022/03/13 20:48:00;;;;;;;14.82;10.50;;;;;;;;;;6258226;23;20004;-89
2022/03/13 20:50:26;;;;;;;15.88;11.23;;;;;;;;;;6231802;23;20004;-88
2022/03/13 20:52:53;;;;;;;10.70;8.27;;;;;;;;;;6258076;23;20011;-89
2022/03/13 20:55:20;;;;;;;10.68;8.02;;;;;;;;;;6234725;23;20080;-89
2022/03/13 20:57:49;;;;;;;12.32;8.50;;;;;;;;;;6258924;23;20007;-89
2022/03/13 21:00:19;;;;;;;10.27;7.70;;;;;;;;;;6231521;23;20068;-89
2022/03/13 21:02:46;;;;;;;9.80;7.75;;;;;;;;;;6229508;23;20015;-90
2022/03/13 21:05:25;;;;;;;10.60;8.02;;;;;;;;;;6178472;23;20009;-90
2022/03/13 21:07:53;;;;;;;13.32;7.97;;;;;;;;;;6202408;23;20009;-89
2022/03/13 21:10:22;;;;;;;12.25;9.07;;;;;;;;;;6201134;23;20008;-89
2022/03/13 21:12:52;;;;;;;14.93;10.27;;;;;;;;;;6203301;23;19997;-89
2022/03/13 21:15:21;;;;;;;14.45;9.95;;;;;;;;;;6227187;23;20001;-89
2022/03/13 21:17:50;;;;;;;13.63;10.15;;;;;;;;;;6206420;23;20027;-89
2022/03/13 21:20:19;;;;;;;10.80;7.75;;;;;;;;;;6254439;23;20107;-89
2022/03/13 21:22:45;;;;;;;11.27;7.90;;;;;;;;;;6252682;23;20004;-89
2022/03/13 21:25:13;;;;;;;11.45;7.25;;;;;;;;;;6252754;23;20000;-89
2022/03/13 21:27:41;;;;;;;14.38;8.43;;;;;;;;;;6255326;22;20078;-89
2022/03/13 21:30:15;;;;;;;13.45;8.68;;;;;;;;;;6253597;23;20040;-89
2022/03/13 21:32:48;;;;;;;13.85;8.82;;;;;;;;;;6252658;23;20004;-89
2022/03/13 21:35:15;;;;;;;12.82;8.55;;;;;;;;;;6253473;23;20374;-89
2022/03/13 21:37:41;;;;;;;11.20;8.23;;;;;;;;;;6252818;23;20012;-89
2022/03/13 21:40:19;;;;;;;13.00;8.38;;;;;;;;;;6254820;22;20000;-89
2022/03/13 21:42:45;;;;;;;11.07;7.85;;;;;;;;;;6252908;23;20038;-88
2022/03/13 21:45:13;;;;;;;11.27;8.27;;;;;;;;;;6253888;23;20004;-88
2022/03/13 21:47:40;;;;;;;12.65;8.85;;;;;;;;;;6255385;22;20063;-89
2022/03/13 21:50:09;;;;;;;12.95;7.75;;;;;;;;;;6252778;23;20059;-89
2022/03/13 21:52:38;;;;;;;13.43;9.17;;;;;;;;;;6252901;23;20079;-89
2022/03/13 21:55:07;;;;;;;13.70;8.35;;;;;;;;;;6254198;23;20230;-89
2022/03/13 21:57:34;;;;;;;10.32;7.60;;;;;;;;;;6253104;23;20000;-88
2022/03/13 22:00:00;;;;;;;20.83;14.10;;;;;;;;;;6251764;23;19996;-89
2022/03/13 22:02:27;;;;;;;19.42;12.32;;;;;;;;;;6252260;23;20004;-89
2022/03/13 22:04:52;;;;;;;16.25;10.73;;;;;;;;;;6253434;23;20008;-89
2022/03/13 22:07:21;;;;;;;14.00;9.70;;;;;;;;;;6253775;23;20558;-89
2022/03/13 22:09:49;;;;;;;18.27;10.10;;;;;;;;;;6254277;22;20035;-89
2022/03/13 22:12:21;;;;;;;13.65;9.95;;;;;;;;;;6253274;23;20066;-89
2022/03/13 22:14:49;;;;;;;16.70;10.32;;;;;;;;;;6253520;23;20031;-89
2022/03/13 22:17:16;;;;;;;10.07;7.18;;;;;;;;;;6254988;22;20015;-89
2022/03/13 22:19:45;;;;;;;10.07;7.95;;;;;;;;;;6234979;22;20016;-89
2022/03/13 22:22:12;;;;;;;11.30;7.60;;;;;;;;;;6260864;22;19999;-89
2022/03/13 22:24:38;;;;;;;12.52;8.88;;;;;;;;;;6287763;22;20000;-89
2022/03/13 22:27:06;;;;;;;11.27;8.30;;;;;;;;;;6262592;22;20034;-89
2022/03/13 22:29:32;;;;;;;14.20;9.48;;;;;;;;;;6287191;22;20008;-89
2022/03/13 22:31:59;;;;;;;14.90;8.45;;;;;;;;;;6260818;22;20055;-89
2022/03/13 22:34:25;;;;;;;12.25;8.50;;;;;;;;;;6235513;22;20004;-89
2022/03/13 22:36:51;;;;;;;21.40;8.63;;;;;;;;;;6260758;22;20007;-88
2022/03/13 22:39:17;;;;;;;15.65;9.90;;;;;;;;;;6236100;22;20022;-89
2022/03/13 22:41:43;;;;;;;12.57;8.75;;;;;;;;;;6287538;22;20075;-88
2022/03/13 22:44:08;;;;;;;11.40;8.68;;;;;;;;;;6260727;22;20010;-89
2022/03/13 22:46:37;;;;;;;13.25;8.18;;;;;;;;;;6259521;22;20007;-89
2022/03/13 22:49:06;;;;;;;13.18;8.45;;;;;;;;;;6258494;22;20054;-90
2022/03/13 22:51:34;;;;;;;11.93;8.13;;;;;;;;;;6228071;22;20382;-89
2022/03/13 22:54:00;;;;;;;11.52;8.07;;;;;;;;;;6254146;22;20020;-89
2022/03/13 22:56:28;;;;;;;16.40;8.95;;;;;;;;;;6254764;22;20053;-89
2022/03/13 22:58:54;;;;;;;14.75;8.88;;;;;;;;;;6281505;22;20371;-89
